sensor_id;sensor_type;location;lat;lon;timestamp;P1;durP1;ratioP1;P2;durP2;ratioP2
44985;SDS011;30721;49.380;7.736;2023-07-29T00:01:19;1.10;;;1.10;;
44985;SDS011;30721;49.380;7.736;2023-07-29T00:03:45;1.33;;;1.23;;
44985;SDS011;30721;49.380;7.736;2023-07-29T00:06:11;1.58;;;1.48;;
44985;SDS011;30721;49.380;7.736;2023-07-29T00:08:36;2.00;;;1.70;;
44985;SDS011;30721;49.380;7.736;2023-07-29T00:11:02;1.58;;;1.48;;
44985;SDS011;30721;49.380;7.736;2023-07-29T00:13:27;1.98;;;1.40;;
44985;SDS011;30721;49.380;7.736;2023-07-29T00:15:53;1.50;;;1.40;;
44985;SDS011;30721;49.380;7.736;2023-07-29T00:18:19;1.60;;;1.50;;
44985;SDS011;30721;49.380;7.736;2023-07-29T00:20:45;2.30;;;1.50;;
44985;SDS011;30721;49.380;7.736;2023-07-29T00:23:10;1.77;;;1.67;;
44985;SDS011;30721;49.380;7.736;2023-07-29T00:25:36;1.52;;;1.33;;
44985;SDS011;30721;49.380;7.736;2023-07-29T00:28:01;1.60;;;1.50;;
44985;SDS011;30721;49.380;7.736;2023-07-29T00:30:27;2.65;;;1.20;;
44985;SDS011;30721;49.380;7.736;2023-07-29T00:32:52;2.30;;;1.50;;
44985;SDS011;30721;49.380;7.736;2023-07-29T00:35:17;1.65;;;1.52;;
44985;SDS011;30721;49.380;7.736;2023-07-29T00:37:43;2.28;;;1.60;;
44985;SDS011;30721;49.380;7.736;2023-07-29T00:40:15;1.90;;;1.38;;
44985;SDS011;30721;49.380;7.736;2023-07-29T00:42:45;1.50;;;1.40;;
44985;SDS011;30721;49.380;7.736;2023-07-29T00:45:10;1.38;;;1.27;;
44985;SDS011;30721;49.380;7.736;2023-07-29T00:47:36;1.88;;;1.63;;
44985;SDS011;30721;49.380;7.736;2023-07-29T00:50:02;1.48;;;1.38;;
44985;SDS011;30721;49.380;7.736;2023-07-29T00:52:28;2.63;;;1.42;;
44985;SDS011;30721;49.380;7.736;2023-07-29T00:54:54;1.88;;;1.55;;
44985;SDS011;30721;49.380;7.736;2023-07-29T00:57:19;1.55;;;1.45;;
44985;SDS011;30721;49.380;7.736;2023-07-29T00:59:45;2.00;;;1.60;;
44985;SDS011;30721;49.380;7.736;2023-07-29T01:02:11;1.67;;;1.58;;
44985;SDS011;30721;49.380;7.736;2023-07-29T01:04:37;1.88;;;1.70;;
44985;SDS011;30721;49.380;7.736;2023-07-29T01:07:05;1.55;;;1.45;;
44985;SDS011;30721;49.380;7.736;2023-07-29T01:14:55;1.33;;;1.23;;
44985;SDS011;30721;49.380;7.736;2023-07-29T01:17:36;1.83;;;1.73;;
44985;SDS011;30721;49.380;7.736;2023-07-29T01:20:08;1.63;;;1.52;;
44985;SDS011;30721;49.380;7.736;2023-07-29T01:22:34;1.63;;;1.52;;
44985;SDS011;30721;49.380;7.736;2023-07-29T01:25:02;1.63;;;1.40;;
44985;SDS011;30721;49.380;7.736;2023-07-29T01:27:28;1.60;;;1.50;;
44985;SDS011;30721;49.380;7.736;2023-07-29T01:29:54;1.35;;;1.25;;
44985;SDS011;30721;49.380;7.736;2023-07-29T01:32:43;1.50;;;1.40;;
44985;SDS011;30721;49.380;7.736;2023-07-29T01:38:13;2.95;;;1.65;;
44985;SDS011;30721;49.380;7.736;2023-07-29T01:40:42;1.88;;;1.40;;
44985;SDS011;30721;49.380;7.736;2023-07-29T01:43:09;1.85;;;1.30;;
44985;SDS011;30721;49.380;7.736;2023-07-29T01:45:35;2.35;;;1.40;;
44985;SDS011;30721;49.380;7.736;2023-07-29T01:48:04;1.48;;;1.30;;
44985;SDS011;30721;49.380;7.736;2023-07-29T01:50:30;1.92;;;1.73;;
44985;SDS011;30721;49.380;7.736;2023-07-29T01:52:57;1.25;;;1.15;;
44985;SDS011;30721;49.380;7.736;2023-07-29T01:55:22;1.70;;;1.58;;
44985;SDS011;30721;49.380;7.736;2023-07-29T01:57:48;1.52;;;1.42;;
44985;SDS011;30721;49.380;7.736;2023-07-29T02:00:13;1.85;;;1.70;;
44985;SDS011;30721;49.380;7.736;2023-07-29T02:02:40;2.10;;;1.50;;
44985;SDS011;30721;49.380;7.736;2023-07-29T02:05:05;2.08;;;1.45;;
44985;SDS011;30721;49.380;7.736;2023-07-29T02:07:31;2.10;;;1.60;;
44985;SDS011;30721;49.380;7.736;2023-07-29T02:09:56;1.70;;;1.60;;
44985;SDS011;30721;49.380;7.736;2023-07-29T02:12:22;1.50;;;1.40;;
44985;SDS011;30721;49.380;7.736;2023-07-29T02:14:47;1.73;;;1.63;;
44985;SDS011;30721;49.380;7.736;2023-07-29T02:17:12;1.67;;;1.52;;
44985;SDS011;30721;49.380;7.736;2023-07-29T02:19:38;1.50;;;1.40;;
44985;SDS011;30721;49.380;7.736;2023-07-29T02:22:03;1.55;;;1.42;;
44985;SDS011;30721;49.380;7.736;2023-07-29T02:24:29;1.20;;;1.10;;
44985;SDS011;30721;49.380;7.736;2023-07-29T02:26:54;1.48;;;1.38;;
44985;SDS011;30721;49.380;7.736;2023-07-29T02:29:20;1.60;;;1.50;;
44985;SDS011;30721;49.380;7.736;2023-07-29T02:31:46;1.52;;;1.42;;
44985;SDS011;30721;49.380;7.736;2023-07-29T02:34:12;2.15;;;1.55;;
44985;SDS011;30721;49.380;7.736;2023-07-29T02:36:38;1.73;;;1.63;;
44985;SDS011;30721;49.380;7.736;2023-07-29T02:39:04;1.70;;;1.60;;
44985;SDS011;30721;49.380;7.736;2023-07-29T02:41:29;1.50;;;1.40;;
44985;SDS011;30721;49.380;7.736;2023-07-29T02:43:54;1.63;;;1.30;;
44985;SDS011;30721;49.380;7.736;2023-07-29T02:46:20;1.80;;;1.65;;
44985;SDS011;30721;49.380;7.736;2023-07-29T02:48:45;1.80;;;1.40;;
44985;SDS011;30721;49.380;7.736;2023-07-29T02:51:11;2.33;;;1.85;;
44985;SDS011;30721;49.380;7.736;2023-07-29T02:53:36;1.88;;;1.60;;
44985;SDS011;30721;49.380;7.736;2023-07-29T02:56:05;2.55;;;1.83;;
44985;SDS011;30721;49.380;7.736;2023-07-29T02:58:34;1.63;;;1.52;;
44985;SDS011;30721;49.380;7.736;2023-07-29T03:01:00;1.55;;;1.45;;
44985;SDS011;30721;49.380;7.736;2023-07-29T03:03:27;2.25;;;1.52;;
44985;SDS011;30721;49.380;7.736;2023-07-29T03:06:02;2.17;;;1.83;;
44985;SDS011;30721;49.380;7.736;2023-07-29T03:08:29;1.95;;;1.63;;
44985;SDS011;30721;49.380;7.736;2023-07-29T03:10:54;2.20;;;1.90;;
44985;SDS011;30721;49.380;7.736;2023-07-29T03:13:20;1.88;;;1.75;;
44985;SDS011;30721;49.380;7.736;2023-07-29T03:15:46;1.75;;;1.65;;
44985;SDS011;30721;49.380;7.736;2023-07-29T03:18:11;2.17;;;1.45;;
44985;SDS011;30721;49.380;7.736;2023-07-29T03:20:37;1.80;;;1.70;;
44985;SDS011;30721;49.380;7.736;2023-07-29T03:23:02;2.00;;;1.50;;
44985;SDS011;30721;49.380;7.736;2023-07-29T03:25:28;1.80;;;1.70;;
44985;SDS011;30721;49.380;7.736;2023-07-29T03:27:54;1.75;;;1.50;;
44985;SDS011;30721;49.380;7.736;2023-07-29T03:30:20;2.35;;;1.70;;
44985;SDS011;30721;49.380;7.736;2023-07-29T03:32:46;2.03;;;1.60;;
44985;SDS011;30721;49.380;7.736;2023-07-29T03:35:12;1.70;;;1.60;;
44985;SDS011;30721;49.380;7.736;2023-07-29T03:37:38;2.10;;;1.70;;
44985;SDS011;30721;49.380;7.736;2023-07-29T03:40:03;1.80;;;1.65;;
44985;SDS011;30721;49.380;7.736;2023-07-29T03:42:29;2.13;;;1.60;;
44985;SDS011;30721;49.380;7.736;2023-07-29T03:44:55;1.77;;;1.67;;
44985;SDS011;30721;49.380;7.736;2023-07-29T03:47:20;2.05;;;1.92;;
44985;SDS011;30721;49.380;7.736;2023-07-29T03:49:45;3.20;;;1.85;;
44985;SDS011;30721;49.380;7.736;2023-07-29T03:52:11;1.70;;;1.60;;
44985;SDS011;30721;49.380;7.736;2023-07-29T03:54:36;2.03;;;1.83;;
44985;SDS011;30721;49.380;7.736;2023-07-29T03:57:02;2.08;;;1.60;;
44985;SDS011;30721;49.380;7.736;2023-07-29T03:59:27;1.70;;;1.30;;
44985;SDS011;30721;49.380;7.736;2023-07-29T04:01:52;1.88;;;1.65;;
44985;SDS011;30721;49.380;7.736;2023-07-29T04:04:18;3.25;;;1.80;;
44985;SDS011;30721;49.380;7.736;2023-07-29T04:06:44;2.80;;;1.60;;
44985;SDS011;30721;49.380;7.736;2023-07-29T04:09:12;2.33;;;1.45;;
44985;SDS011;30721;49.380;7.736;2023-07-29T04:11:38;1.90;;;1.75;;
44985;SDS011;30721;49.380;7.736;2023-07-29T04:14:03;2.13;;;1.70;;
44985;SDS011;30721;49.380;7.736;2023-07-29T04:16:29;1.67;;;1.58;;
44985;SDS011;30721;49.380;7.736;2023-07-29T04:18:54;2.70;;;1.85;;
44985;SDS011;30721;49.380;7.736;2023-07-29T04:21:19;2.67;;;1.67;;
44985;SDS011;30721;49.380;7.736;2023-07-29T04:23:45;1.80;;;1.30;;
44985;SDS011;30721;49.380;7.736;2023-07-29T04:26:11;1.60;;;1.50;;
44985;SDS011;30721;49.380;7.736;2023-07-29T04:28:36;2.47;;;1.60;;
44985;SDS011;30721;49.380;7.736;2023-07-29T04:31:01;2.28;;;1.80;;
44985;SDS011;30721;49.380;7.736;2023-07-29T04:33:28;2.30;;;1.67;;
44985;SDS011;30721;49.380;7.736;2023-07-29T04:35:54;1.73;;;1.58;;
44985;SDS011;30721;49.380;7.736;2023-07-29T04:38:20;1.88;;;1.70;;
44985;SDS011;30721;49.380;7.736;2023-07-29T04:40:45;2.10;;;1.90;;
44985;SDS011;30721;49.380;7.736;2023-07-29T04:43:10;2.67;;;1.60;;
44985;SDS011;30721;49.380;7.736;2023-07-29T04:45:36;3.05;;;2.10;;
44985;SDS011;30721;49.380;7.736;2023-07-29T04:48:07;1.88;;;1.77;;
44985;SDS011;30721;49.380;7.736;2023-07-29T04:50:33;2.10;;;1.90;;
44985;SDS011;30721;49.380;7.736;2023-07-29T04:52:58;2.58;;;1.67;;
44985;SDS011;30721;49.380;7.736;2023-07-29T04:55:24;1.95;;;1.60;;
44985;SDS011;30721;49.380;7.736;2023-07-29T04:57:49;1.92;;;1.77;;
44985;SDS011;30721;49.380;7.736;2023-07-29T05:00:14;2.10;;;1.95;;
44985;SDS011;30721;49.380;7.736;2023-07-29T05:02:41;2.30;;;2.10;;
44985;SDS011;30721;49.380;7.736;2023-07-29T05:05:06;2.38;;;2.17;;
44985;SDS011;30721;49.380;7.736;2023-07-29T05:07:33;2.65;;;2.22;;
44985;SDS011;30721;49.380;7.736;2023-07-29T05:09:58;2.50;;;2.30;;
44985;SDS011;30721;49.380;7.736;2023-07-29T05:12:24;3.33;;;3.00;;
44985;SDS011;30721;49.380;7.736;2023-07-29T05:14:49;3.40;;;2.90;;
44985;SDS011;30721;49.380;7.736;2023-07-29T05:17:14;4.72;;;3.33;;
44985;SDS011;30721;49.380;7.736;2023-07-29T05:19:40;3.65;;;3.40;;
44985;SDS011;30721;49.380;7.736;2023-07-29T05:22:05;3.92;;;3.63;;
44985;SDS011;30721;49.380;7.736;2023-07-29T05:24:31;4.40;;;4.10;;
44985;SDS011;30721;49.380;7.736;2023-07-29T05:26:56;3.75;;;3.20;;
44985;SDS011;30721;49.380;7.736;2023-07-29T05:29:22;4.25;;;3.95;;
44985;SDS011;30721;49.380;7.736;2023-07-29T05:31:47;4.35;;;3.95;;
44985;SDS011;30721;49.380;7.736;2023-07-29T05:34:12;4.30;;;3.75;;
44985;SDS011;30721;49.380;7.736;2023-07-29T05:36:38;4.22;;;3.83;;
44985;SDS011;30721;49.380;7.736;2023-07-29T05:39:04;4.22;;;3.63;;
44985;SDS011;30721;49.380;7.736;2023-07-29T05:41:29;4.63;;;4.25;;
44985;SDS011;30721;49.380;7.736;2023-07-29T05:43:55;4.97;;;3.80;;
44985;SDS011;30721;49.380;7.736;2023-07-29T05:46:20;3.60;;;3.30;;
44985;SDS011;30721;49.380;7.736;2023-07-29T05:48:46;4.50;;;4.20;;
44985;SDS011;30721;49.380;7.736;2023-07-29T05:51:11;4.40;;;4.00;;
44985;SDS011;30721;49.380;7.736;2023-07-29T05:53:37;4.95;;;4.03;;
44985;SDS011;30721;49.380;7.736;2023-07-29T05:56:02;4.10;;;3.72;;
44985;SDS011;30721;49.380;7.736;2023-07-29T05:58:28;3.90;;;3.60;;
44985;SDS011;30721;49.380;7.736;2023-07-29T06:00:56;4.45;;;4.15;;
44985;SDS011;30721;49.380;7.736;2023-07-29T06:03:22;3.65;;;3.45;;
44985;SDS011;30721;49.380;7.736;2023-07-29T06:05:48;3.67;;;3.38;;
44985;SDS011;30721;49.380;7.736;2023-07-29T06:08:14;3.50;;;3.20;;
44985;SDS011;30721;49.380;7.736;2023-07-29T06:10:39;3.97;;;3.67;;
44985;SDS011;30721;49.380;7.736;2023-07-29T06:13:05;3.65;;;3.35;;
44985;SDS011;30721;49.380;7.736;2023-07-29T06:15:31;4.25;;;3.95;;
44985;SDS011;30721;49.380;7.736;2023-07-29T06:17:56;4.53;;;4.22;;
44985;SDS011;30721;49.380;7.736;2023-07-29T06:20:22;4.25;;;3.63;;
44985;SDS011;30721;49.380;7.736;2023-07-29T06:22:47;4.18;;;3.88;;
44985;SDS011;30721;49.380;7.736;2023-07-29T06:25:12;4.50;;;3.97;;
44985;SDS011;30721;49.380;7.736;2023-07-29T06:27:38;3.92;;;3.63;;
44985;SDS011;30721;49.380;7.736;2023-07-29T06:30:04;3.78;;;3.47;;
44985;SDS011;30721;49.380;7.736;2023-07-29T06:32:29;4.13;;;3.72;;
44985;SDS011;30721;49.380;7.736;2023-07-29T06:34:55;3.60;;;3.30;;
44985;SDS011;30721;49.380;7.736;2023-07-29T06:37:20;4.05;;;3.75;;
44985;SDS011;30721;49.380;7.736;2023-07-29T06:39:46;3.13;;;2.83;;
44985;SDS011;30721;49.380;7.736;2023-07-29T06:42:12;3.70;;;3.25;;
44985;SDS011;30721;49.380;7.736;2023-07-29T06:44:37;3.00;;;2.80;;
44985;SDS011;30721;49.380;7.736;2023-07-29T06:47:03;3.58;;;3.38;;
44985;SDS011;30721;49.380;7.736;2023-07-29T06:49:28;3.35;;;2.83;;
44985;SDS011;30721;49.380;7.736;2023-07-29T06:51:54;3.28;;;2.90;;
44985;SDS011;30721;49.380;7.736;2023-07-29T06:54:23;3.95;;;2.90;;
44985;SDS011;30721;49.380;7.736;2023-07-29T06:56:49;4.28;;;3.20;;
44985;SDS011;30721;49.380;7.736;2023-07-29T06:59:14;2.90;;;2.70;;
44985;SDS011;30721;49.380;7.736;2023-07-29T07:01:40;5.10;;;3.28;;
44985;SDS011;30721;49.380;7.736;2023-07-29T07:04:05;3.17;;;2.97;;
44985;SDS011;30721;49.380;7.736;2023-07-29T07:06:31;2.85;;;2.65;;
44985;SDS011;30721;49.380;7.736;2023-07-29T07:08:56;3.30;;;3.10;;
44985;SDS011;30721;49.380;7.736;2023-07-29T07:11:21;3.38;;;3.17;;
44985;SDS011;30721;49.380;7.736;2023-07-29T07:13:47;5.82;;;3.15;;
44985;SDS011;30721;49.380;7.736;2023-07-29T07:16:12;3.47;;;3.20;;
44985;SDS011;30721;49.380;7.736;2023-07-29T07:18:38;4.15;;;3.10;;
44985;SDS011;30721;49.380;7.736;2023-07-29T07:21:03;3.53;;;3.22;;
44985;SDS011;30721;49.380;7.736;2023-07-29T07:23:28;4.07;;;3.78;;
44985;SDS011;30721;49.380;7.736;2023-07-29T07:25:54;3.70;;;3.38;;
44985;SDS011;30721;49.380;7.736;2023-07-29T07:28:19;3.50;;;3.20;;
44985;SDS011;30721;49.380;7.736;2023-07-29T07:30:45;3.60;;;3.38;;
44985;SDS011;30721;49.380;7.736;2023-07-29T07:33:10;3.40;;;3.20;;
44985;SDS011;30721;49.380;7.736;2023-07-29T07:35:36;3.47;;;3.17;;
44985;SDS011;30721;49.380;7.736;2023-07-29T07:38:01;3.38;;;3.13;;
44985;SDS011;30721;49.380;7.736;2023-07-29T07:40:29;4.07;;;3.67;;
44985;SDS011;30721;49.380;7.736;2023-07-29T07:42:57;3.97;;;3.67;;
44985;SDS011;30721;49.380;7.736;2023-07-29T07:45:23;3.28;;;2.97;;
44985;SDS011;30721;49.380;7.736;2023-07-29T07:47:48;4.20;;;3.80;;
44985;SDS011;30721;49.380;7.736;2023-07-29T07:50:14;3.80;;;3.50;;
44985;SDS011;30721;49.380;7.736;2023-07-29T07:52:39;3.60;;;2.95;;
44985;SDS011;30721;49.380;7.736;2023-07-29T07:55:05;3.17;;;2.97;;
44985;SDS011;30721;49.380;7.736;2023-07-29T07:57:31;3.05;;;2.85;;
44985;SDS011;30721;49.380;7.736;2023-07-29T07:59:56;3.70;;;3.50;;
44985;SDS011;30721;49.380;7.736;2023-07-29T08:02:21;3.75;;;3.03;;
44985;SDS011;30721;49.380;7.736;2023-07-29T08:04:47;3.17;;;2.40;;
44985;SDS011;30721;49.380;7.736;2023-07-29T08:07:13;3.50;;;3.30;;
44985;SDS011;30721;49.380;7.736;2023-07-29T08:09:39;3.17;;;2.97;;
44985;SDS011;30721;49.380;7.736;2023-07-29T08:12:04;3.22;;;2.92;;
44985;SDS011;30721;49.380;7.736;2023-07-29T08:14:30;3.00;;;2.58;;
44985;SDS011;30721;49.380;7.736;2023-07-29T08:16:55;3.00;;;2.70;;
44985;SDS011;30721;49.380;7.736;2023-07-29T08:19:21;2.50;;;2.28;;
44985;SDS011;30721;49.380;7.736;2023-07-29T08:21:46;2.28;;;2.05;;
44985;SDS011;30721;49.380;7.736;2023-07-29T08:24:12;2.47;;;2.13;;
44985;SDS011;30721;49.380;7.736;2023-07-29T08:26:37;2.50;;;2.30;;
44985;SDS011;30721;49.380;7.736;2023-07-29T08:29:02;2.50;;;2.30;;
44985;SDS011;30721;49.380;7.736;2023-07-29T08:31:28;2.35;;;1.92;;
44985;SDS011;30721;49.380;7.736;2023-07-29T08:33:54;2.70;;;2.50;;
44985;SDS011;30721;49.380;7.736;2023-07-29T08:36:20;3.90;;;3.45;;
44985;SDS011;30721;49.380;7.736;2023-07-29T08:38:45;2.58;;;2.30;;
44985;SDS011;30721;49.380;7.736;2023-07-29T08:44:06;2.33;;;2.13;;
44985;SDS011;30721;49.380;7.736;2023-07-29T08:46:37;5.00;;;2.13;;
44985;SDS011;30721;49.380;7.736;2023-07-29T08:49:04;2.20;;;2.05;;
44985;SDS011;30721;49.380;7.736;2023-07-29T08:51:30;2.00;;;1.90;;
44985;SDS011;30721;49.380;7.736;2023-07-29T08:53:56;1.80;;;1.70;;
44985;SDS011;30721;49.380;7.736;2023-07-29T08:56:23;4.43;;;2.22;;
44985;SDS011;30721;49.380;7.736;2023-07-29T08:58:49;1.90;;;1.42;;
44985;SDS011;30721;49.380;7.736;2023-07-29T09:01:14;2.50;;;2.00;;
44985;SDS011;30721;49.380;7.736;2023-07-29T09:03:40;4.10;;;2.10;;
44985;SDS011;30721;49.380;7.736;2023-07-29T09:06:06;1.88;;;1.77;;
44985;SDS011;30721;49.380;7.736;2023-07-29T09:08:32;1.42;;;1.33;;
44985;SDS011;30721;49.380;7.736;2023-07-29T09:10:59;1.95;;;1.80;;
44985;SDS011;30721;49.380;7.736;2023-07-29T09:13:25;2.60;;;2.40;;
44985;SDS011;30721;49.380;7.736;2023-07-29T09:15:53;2.55;;;1.80;;
44985;SDS011;30721;49.380;7.736;2023-07-29T09:18:20;1.60;;;1.50;;
44985;SDS011;30721;49.380;7.736;2023-07-29T09:20:46;2.45;;;1.40;;
44985;SDS011;30721;49.380;7.736;2023-07-29T09:23:12;1.83;;;1.73;;
44985;SDS011;30721;49.380;7.736;2023-07-29T09:25:38;1.80;;;1.70;;
44985;SDS011;30721;49.380;7.736;2023-07-29T09:28:08;1.67;;;1.48;;
44985;SDS011;30721;49.380;7.736;2023-07-29T09:30:38;2.42;;;1.40;;
44985;SDS011;30721;49.380;7.736;2023-07-29T09:33:04;1.67;;;1.58;;
44985;SDS011;30721;49.380;7.736;2023-07-29T09:35:30;1.98;;;1.80;;
44985;SDS011;30721;49.380;7.736;2023-07-29T09:37:59;2.58;;;1.60;;
44985;SDS011;30721;49.380;7.736;2023-07-29T09:40:24;1.55;;;1.45;;
44985;SDS011;30721;49.380;7.736;2023-07-29T09:42:50;1.70;;;1.58;;
44985;SDS011;30721;49.380;7.736;2023-07-29T09:45:26;1.73;;;1.63;;
44985;SDS011;30721;49.380;7.736;2023-07-29T09:47:52;3.03;;;1.63;;
44985;SDS011;30721;49.380;7.736;2023-07-29T09:50:19;1.98;;;1.73;;
44985;SDS011;30721;49.380;7.736;2023-07-29T09:52:48;1.42;;;1.33;;
44985;SDS011;30721;49.380;7.736;2023-07-29T09:55:17;1.98;;;1.50;;
44985;SDS011;30721;49.380;7.736;2023-07-29T09:57:43;1.60;;;1.50;;
44985;SDS011;30721;49.380;7.736;2023-07-29T10:00:12;1.75;;;1.60;;
44985;SDS011;30721;49.380;7.736;2023-07-29T10:02:39;2.30;;;1.50;;
44985;SDS011;30721;49.380;7.736;2023-07-29T10:05:06;2.35;;;1.42;;
44985;SDS011;30721;49.380;7.736;2023-07-29T10:07:33;1.60;;;1.50;;
44985;SDS011;30721;49.380;7.736;2023-07-29T10:10:00;1.55;;;1.45;;
44985;SDS011;30721;49.380;7.736;2023-07-29T10:12:27;1.50;;;1.40;;
44985;SDS011;30721;49.380;7.736;2023-07-29T10:14:53;1.20;;;1.20;;
44985;SDS011;30721;49.380;7.736;2023-07-29T10:17:20;2.83;;;1.55;;
44985;SDS011;30721;49.380;7.736;2023-07-29T10:19:46;1.77;;;1.60;;
44985;SDS011;30721;49.380;7.736;2023-07-29T10:22:11;2.97;;;1.95;;
44985;SDS011;30721;49.380;7.736;2023-07-29T10:24:38;2.67;;;2.47;;
44985;SDS011;30721;49.380;7.736;2023-07-29T10:27:06;1.67;;;1.35;;
44985;SDS011;30721;49.380;7.736;2023-07-29T10:29:32;1.85;;;1.40;;
44985;SDS011;30721;49.380;7.736;2023-07-29T10:32:02;2.40;;;1.80;;
44985;SDS011;30721;49.380;7.736;2023-07-29T10:34:31;2.78;;;1.73;;
44985;SDS011;30721;49.380;7.736;2023-07-29T10:36:57;1.52;;;1.40;;
44985;SDS011;30721;49.380;7.736;2023-07-29T10:39:24;2.65;;;1.70;;
44985;SDS011;30721;49.380;7.736;2023-07-29T10:42:00;2.28;;;1.50;;
44985;SDS011;30721;49.380;7.736;2023-07-29T10:47:14;2.58;;;1.50;;
44985;SDS011;30721;49.380;7.736;2023-07-29T10:49:40;1.60;;;1.38;;
44985;SDS011;30721;49.380;7.736;2023-07-29T10:52:06;2.15;;;1.30;;
44985;SDS011;30721;49.380;7.736;2023-07-29T10:54:31;2.88;;;1.33;;
44985;SDS011;30721;49.380;7.736;2023-07-29T10:57:13;1.55;;;1.40;;
44985;SDS011;30721;49.380;7.736;2023-07-29T10:59:55;1.55;;;1.45;;
44985;SDS011;30721;49.380;7.736;2023-07-29T11:02:22;1.92;;;1.40;;
44985;SDS011;30721;49.380;7.736;2023-07-29T11:04:54;1.85;;;1.70;;
44985;SDS011;30721;49.380;7.736;2023-07-29T11:07:20;1.40;;;1.30;;
44985;SDS011;30721;49.380;7.736;2023-07-29T11:09:55;2.30;;;1.40;;
44985;SDS011;30721;49.380;7.736;2023-07-29T11:12:44;1.70;;;1.60;;
44985;SDS011;30721;49.380;7.736;2023-07-29T11:17:42;2.20;;;1.50;;
44985;SDS011;30721;49.380;7.736;2023-07-29T11:20:09;1.15;;;1.10;;
44985;SDS011;30721;49.380;7.736;2023-07-29T11:22:35;1.15;;;1.05;;
44985;SDS011;30721;49.380;7.736;2023-07-29T11:25:01;1.33;;;1.23;;
44985;SDS011;30721;49.380;7.736;2023-07-29T11:27:27;1.40;;;1.30;;
44985;SDS011;30721;49.380;7.736;2023-07-29T11:29:56;1.45;;;1.35;;
44985;SDS011;30721;49.380;7.736;2023-07-29T11:32:23;1.33;;;1.25;;
44985;SDS011;30721;49.380;7.736;2023-07-29T11:34:48;1.20;;;1.10;;
44985;SDS011;30721;49.380;7.736;2023-07-29T11:37:14;1.40;;;1.27;;
44985;SDS011;30721;49.380;7.736;2023-07-29T11:39:43;1.33;;;1.33;;
44985;SDS011;30721;49.380;7.736;2023-07-29T11:42:15;1.45;;;1.35;;
44985;SDS011;30721;49.380;7.736;2023-07-29T11:44:41;1.40;;;1.30;;
44985;SDS011;30721;49.380;7.736;2023-07-29T11:47:07;1.50;;;1.15;;
44985;SDS011;30721;49.380;7.736;2023-07-29T11:49:37;2.20;;;1.20;;
44985;SDS011;30721;49.380;7.736;2023-07-29T11:52:03;2.10;;;1.50;;
44985;SDS011;30721;49.380;7.736;2023-07-29T11:54:29;1.83;;;1.60;;
44985;SDS011;30721;49.380;7.736;2023-07-29T11:56:55;1.70;;;1.60;;
44985;SDS011;30721;49.380;7.736;2023-07-29T11:59:20;1.55;;;1.45;;
44985;SDS011;30721;49.380;7.736;2023-07-29T12:01:46;1.50;;;1.40;;
44985;SDS011;30721;49.380;7.736;2023-07-29T12:04:11;1.88;;;1.45;;
44985;SDS011;30721;49.380;7.736;2023-07-29T12:06:37;1.52;;;1.42;;
44985;SDS011;30721;49.380;7.736;2023-07-29T12:09:03;1.85;;;1.65;;
44985;SDS011;30721;49.380;7.736;2023-07-29T12:11:28;1.45;;;1.35;;
44985;SDS011;30721;49.380;7.736;2023-07-29T12:13:53;1.67;;;1.30;;
44985;SDS011;30721;49.380;7.736;2023-07-29T12:16:19;1.52;;;1.42;;
44985;SDS011;30721;49.380;7.736;2023-07-29T12:18:45;1.40;;;1.30;;
44985;SDS011;30721;49.380;7.736;2023-07-29T12:21:10;1.95;;;1.40;;
44985;SDS011;30721;49.380;7.736;2023-07-29T12:23:35;1.95;;;1.20;;
44985;SDS011;30721;49.380;7.736;2023-07-29T12:26:01;1.95;;;1.27;;
44985;SDS011;30721;49.380;7.736;2023-07-29T12:28:27;1.00;;;1.00;;
44985;SDS011;30721;49.380;7.736;2023-07-29T12:30:53;1.40;;;1.30;;
44985;SDS011;30721;49.380;7.736;2023-07-29T12:35:59;1.33;;;1.23;;
44985;SDS011;30721;49.380;7.736;2023-07-29T12:38:30;2.55;;;1.33;;
44985;SDS011;30721;49.380;7.736;2023-07-29T12:40:56;1.67;;;1.58;;
44985;SDS011;30721;49.380;7.736;2023-07-29T12:43:21;1.67;;;1.58;;
44985;SDS011;30721;49.380;7.736;2023-07-29T12:45:50;1.77;;;1.67;;
44985;SDS011;30721;49.380;7.736;2023-07-29T12:48:15;1.38;;;1.23;;
44985;SDS011;30721;49.380;7.736;2023-07-29T12:50:41;1.35;;;1.25;;
44985;SDS011;30721;49.380;7.736;2023-07-29T12:53:07;1.85;;;1.75;;
44985;SDS011;30721;49.380;7.736;2023-07-29T12:55:35;1.50;;;1.40;;
44985;SDS011;30721;49.380;7.736;2023-07-29T12:58:00;1.70;;;1.60;;
44985;SDS011;30721;49.380;7.736;2023-07-29T13:00:26;1.50;;;1.40;;
44985;SDS011;30721;49.380;7.736;2023-07-29T13:02:51;1.50;;;1.40;;
44985;SDS011;30721;49.380;7.736;2023-07-29T13:05:17;1.48;;;1.38;;
44985;SDS011;30721;49.380;7.736;2023-07-29T13:07:43;1.70;;;1.40;;
44985;SDS011;30721;49.380;7.736;2023-07-29T13:10:11;1.65;;;1.52;;
44985;SDS011;30721;49.380;7.736;2023-07-29T13:12:37;1.60;;;1.42;;
44985;SDS011;30721;49.380;7.736;2023-07-29T13:15:03;1.50;;;1.40;;
44985;SDS011;30721;49.380;7.736;2023-07-29T13:17:29;2.00;;;1.38;;
44985;SDS011;30721;49.380;7.736;2023-07-29T13:19:54;1.40;;;1.30;;
44985;SDS011;30721;49.380;7.736;2023-07-29T13:22:20;1.80;;;1.70;;
44985;SDS011;30721;49.380;7.736;2023-07-29T13:24:46;1.73;;;1.60;;
44985;SDS011;30721;49.380;7.736;2023-07-29T13:27:11;1.40;;;1.30;;
44985;SDS011;30721;49.380;7.736;2023-07-29T13:29:37;1.88;;;1.60;;
44985;SDS011;30721;49.380;7.736;2023-07-29T13:32:02;1.65;;;1.40;;
44985;SDS011;30721;49.380;7.736;2023-07-29T13:34:28;3.03;;;1.42;;
44985;SDS011;30721;49.380;7.736;2023-07-29T13:36:53;1.70;;;1.60;;
44985;SDS011;30721;49.380;7.736;2023-07-29T13:39:19;1.42;;;1.33;;
44985;SDS011;30721;49.380;7.736;2023-07-29T13:41:44;2.03;;;1.30;;
44985;SDS011;30721;49.380;7.736;2023-07-29T13:44:10;1.45;;;1.35;;
44985;SDS011;30721;49.380;7.736;2023-07-29T13:46:35;1.58;;;1.48;;
44985;SDS011;30721;49.380;7.736;2023-07-29T13:49:00;1.73;;;1.50;;
44985;SDS011;30721;49.380;7.736;2023-07-29T13:51:27;1.30;;;1.20;;
44985;SDS011;30721;49.380;7.736;2023-07-29T13:53:52;1.60;;;1.50;;
44985;SDS011;30721;49.380;7.736;2023-07-29T13:56:17;1.75;;;1.65;;
44985;SDS011;30721;49.380;7.736;2023-07-29T13:58:43;1.40;;;1.30;;
44985;SDS011;30721;49.380;7.736;2023-07-29T14:01:08;1.77;;;1.30;;
44985;SDS011;30721;49.380;7.736;2023-07-29T14:03:34;1.60;;;1.50;;
44985;SDS011;30721;49.380;7.736;2023-07-29T14:05:59;1.95;;;1.58;;
44985;SDS011;30721;49.380;7.736;2023-07-29T14:08:24;1.55;;;1.50;;
44985;SDS011;30721;49.380;7.736;2023-07-29T14:10:50;1.63;;;1.50;;
44985;SDS011;30721;49.380;7.736;2023-07-29T14:13:15;1.70;;;1.60;;
44985;SDS011;30721;49.380;7.736;2023-07-29T14:15:41;1.63;;;1.52;;
44985;SDS011;30721;49.380;7.736;2023-07-29T14:18:06;1.30;;;1.20;;
44985;SDS011;30721;49.380;7.736;2023-07-29T14:20:32;1.63;;;1.52;;
44985;SDS011;30721;49.380;7.736;2023-07-29T14:22:57;1.52;;;1.42;;
44985;SDS011;30721;49.380;7.736;2023-07-29T14:25:23;1.50;;;1.40;;
44985;SDS011;30721;49.380;7.736;2023-07-29T14:27:48;2.05;;;1.85;;
44985;SDS011;30721;49.380;7.736;2023-07-29T14:30:14;1.33;;;1.23;;
44985;SDS011;30721;49.380;7.736;2023-07-29T14:32:39;1.80;;;1.70;;
44985;SDS011;30721;49.380;7.736;2023-07-29T14:35:05;1.70;;;1.60;;
44985;SDS011;30721;49.380;7.736;2023-07-29T14:37:50;1.98;;;1.77;;
44985;SDS011;30721;49.380;7.736;2023-07-29T14:40:16;1.52;;;1.35;;
44985;SDS011;30721;49.380;7.736;2023-07-29T14:42:41;1.77;;;1.67;;
44985;SDS011;30721;49.380;7.736;2023-07-29T14:45:07;1.60;;;1.50;;
44985;SDS011;30721;49.380;7.736;2023-07-29T14:47:32;2.13;;;1.67;;
44985;SDS011;30721;49.380;7.736;2023-07-29T14:50:00;1.83;;;1.73;;
44985;SDS011;30721;49.380;7.736;2023-07-29T14:52:25;2.08;;;1.60;;
44985;SDS011;30721;49.380;7.736;2023-07-29T14:54:51;1.67;;;1.58;;
44985;SDS011;30721;49.380;7.736;2023-07-29T14:57:16;1.85;;;1.70;;
44985;SDS011;30721;49.380;7.736;2023-07-29T14:59:42;2.15;;;1.77;;
44985;SDS011;30721;49.380;7.736;2023-07-29T15:02:07;1.60;;;1.50;;